sensor_id;sensor_type;location;lat;lon;timestamp;temperature;humidity
24384;DHT22;12504;52.870;8.798;2023-05-07T00:00:26;10.00;99.90
24384;DHT22;12504;52.870;8.798;2023-05-07T00:02:52;10.00;99.90
24384;DHT22;12504;52.870;8.798;2023-05-07T00:05:18;10.00;99.90
24384;DHT22;12504;52.870;8.798;2023-05-07T00:07:44;10.00;99.90
24384;DHT22;12504;52.870;8.798;2023-05-07T00:10:10;10.00;99.90
24384;DHT22;12504;52.870;8.798;2023-05-07T00:12:35;10.00;99.90
24384;DHT22;12504;52.870;8.798;2023-05-07T00:15:02;9.90;99.90
24384;DHT22;12504;52.870;8.798;2023-05-07T00:17:27;9.90;99.90
24384;DHT22;12504;52.870;8.798;2023-05-07T00:19:53;9.90;99.90
24384;DHT22;12504;52.870;8.798;2023-05-07T00:22:18;9.90;99.90
24384;DHT22;12504;52.870;8.798;2023-05-07T00:24:44;9.90;99.90
24384;DHT22;12504;52.870;8.798;2023-05-07T00:27:09;9.90;99.90
24384;DHT22;12504;52.870;8.798;2023-05-07T00:29:35;9.90;99.90
24384;DHT22;12504;52.870;8.798;2023-05-07T00:32:01;9.80;99.90
24384;DHT22;12504;52.870;8.798;2023-05-07T00:34:27;9.80;99.90
24384;DHT22;12504;52.870;8.798;2023-05-07T00:36:53;9.80;99.90
24384;DHT22;12504;52.870;8.798;2023-05-07T00:39:18;9.80;99.90
24384;DHT22;12504;52.870;8.798;2023-05-07T00:41:44;9.80;99.90
24384;DHT22;12504;52.870;8.798;2023-05-07T00:44:10;9.80;99.90
24384;DHT22;12504;52.870;8.798;2023-05-07T00:46:35;9.60;99.90
24384;DHT22;12504;52.870;8.798;2023-05-07T00:49:01;9.60;99.90
24384;DHT22;12504;52.870;8.798;2023-05-07T00:51:27;9.60;99.90
24384;DHT22;12504;52.870;8.798;2023-05-07T00:53:53;9.60;99.90
24384;DHT22;12504;52.870;8.798;2023-05-07T00:56:19;9.60;99.90
24384;DHT22;12504;52.870;8.798;2023-05-07T00:58:45;9.50;99.90
24384;DHT22;12504;52.870;8.798;2023-05-07T01:01:11;9.50;99.90
24384;DHT22;12504;52.870;8.798;2023-05-07T01:03:36;9.50;99.90
24384;DHT22;12504;52.870;8.798;2023-05-07T01:06:02;9.50;99.90
24384;DHT22;12504;52.870;8.798;2023-05-07T01:08:28;9.50;99.90
24384;DHT22;12504;52.870;8.798;2023-05-07T01:10:55;9.50;99.90
24384;DHT22;12504;52.870;8.798;2023-05-07T01:13:21;9.50;99.90
24384;DHT22;12504;52.870;8.798;2023-05-07T01:15:48;9.50;99.90
24384;DHT22;12504;52.870;8.798;2023-05-07T01:18:14;9.50;99.90
24384;DHT22;12504;52.870;8.798;2023-05-07T01:20:40;9.40;99.90
24384;DHT22;12504;52.870;8.798;2023-05-07T01:23:06;9.40;99.90
24384;DHT22;12504;52.870;8.798;2023-05-07T01:25:32;9.40;99.90
24384;DHT22;12504;52.870;8.798;2023-05-07T01:28:00;9.40;99.90
24384;DHT22;12504;52.870;8.798;2023-05-07T01:30:29;9.40;99.90
24384;DHT22;12504;52.870;8.798;2023-05-07T01:33:03;9.40;99.90
24384;DHT22;12504;52.870;8.798;2023-05-07T01:35:31;9.30;99.90
24384;DHT22;12504;52.870;8.798;2023-05-07T01:37:59;9.30;99.90
24384;DHT22;12504;52.870;8.798;2023-05-07T01:40:25;9.30;99.90
24384;DHT22;12504;52.870;8.798;2023-05-07T01:42:51;9.30;99.90
24384;DHT22;12504;52.870;8.798;2023-05-07T01:45:17;9.30;99.90
24384;DHT22;12504;52.870;8.798;2023-05-07T01:47:43;9.30;99.90
24384;DHT22;12504;52.870;8.798;2023-05-07T01:50:09;9.30;99.90
24384;DHT22;12504;52.870;8.798;2023-05-07T01:52:36;9.30;99.90
24384;DHT22;12504;52.870;8.798;2023-05-07T01:55:02;9.30;99.90
24384;DHT22;12504;52.870;8.798;2023-05-07T01:57:29;9.30;99.90
24384;DHT22;12504;52.870;8.798;2023-05-07T01:59:54;9.30;99.90
24384;DHT22;12504;52.870;8.798;2023-05-07T02:02:20;9.30;99.90
24384;DHT22;12504;52.870;8.798;2023-05-07T02:04:46;9.30;99.90
24384;DHT22;12504;52.870;8.798;2023-05-07T02:07:14;9.30;99.90
24384;DHT22;12504;52.870;8.798;2023-05-07T02:09:39;9.30;99.90
24384;DHT22;12504;52.870;8.798;2023-05-07T02:12:05;9.30;99.90
24384;DHT22;12504;52.870;8.798;2023-05-07T02:14:31;9.30;99.90
24384;DHT22;12504;52.870;8.798;2023-05-07T02:17:19;9.30;99.90
24384;DHT22;12504;52.870;8.798;2023-05-07T02:19:44;9.30;99.90
24384;DHT22;12504;52.870;8.798;2023-05-07T02:22:10;9.20;99.90
24384;DHT22;12504;52.870;8.798;2023-05-07T02:24:36;9.30;99.90
24384;DHT22;12504;52.870;8.798;2023-05-07T02:27:01;9.20;99.90
24384;DHT22;12504;52.870;8.798;2023-05-07T02:29:29;9.20;99.90
24384;DHT22;12504;52.870;8.798;2023-05-07T02:31:54;9.20;99.90
24384;DHT22;12504;52.870;8.798;2023-05-07T02:34:20;9.20;99.90
24384;DHT22;12504;52.870;8.798;2023-05-07T02:36:46;9.20;99.90
24384;DHT22;12504;52.870;8.798;2023-05-07T02:39:16;9.20;99.90
24384;DHT22;12504;52.870;8.798;2023-05-07T02:41:41;9.20;99.90
24384;DHT22;12504;52.870;8.798;2023-05-07T02:44:07;9.20;99.90
24384;DHT22;12504;52.870;8.798;2023-05-07T02:46:33;9.20;99.90
24384;DHT22;12504;52.870;8.798;2023-05-07T02:49:03;9.10;99.90
24384;DHT22;12504;52.870;8.798;2023-05-07T02:51:29;9.10;99.90
24384;DHT22;12504;52.870;8.798;2023-05-07T02:53:57;9.10;99.90
24384;DHT22;12504;52.870;8.798;2023-05-07T02:56:25;9.10;99.90
24384;DHT22;12504;52.870;8.798;2023-05-07T02:58:51;9.10;99.90
24384;DHT22;12504;52.870;8.798;2023-05-07T03:01:18;9.10;99.90
24384;DHT22;12504;52.870;8.798;2023-05-07T03:03:57;9.10;99.90
24384;DHT22;12504;52.870;8.798;2023-05-07T03:06:22;9.10;99.90
24384;DHT22;12504;52.870;8.798;2023-05-07T03:08:48;9.10;99.90
24384;DHT22;12504;52.870;8.798;2023-05-07T03:11:13;9.10;99.90
24384;DHT22;12504;52.870;8.798;2023-05-07T03:13:39;9.10;99.90
24384;DHT22;12504;52.870;8.798;2023-05-07T03:16:05;9.10;99.90
24384;DHT22;12504;52.870;8.798;2023-05-07T03:18:31;9.10;99.90
24384;DHT22;12504;52.870;8.798;2023-05-07T03:20:57;9.10;99.90
24384;DHT22;12504;52.870;8.798;2023-05-07T03:23:22;9.10;99.90
24384;DHT22;12504;52.870;8.798;2023-05-07T03:25:48;9.10;99.90
24384;DHT22;12504;52.870;8.798;2023-05-07T03:28:14;9.10;99.90
24384;DHT22;12504;52.870;8.798;2023-05-07T03:30:46;9.10;99.90
24384;DHT22;12504;52.870;8.798;2023-05-07T03:33:12;9.10;99.90
24384;DHT22;12504;52.870;8.798;2023-05-07T03:35:38;9.10;99.90
24384;DHT22;12504;52.870;8.798;2023-05-07T03:38:04;9.00;99.90
24384;DHT22;12504;52.870;8.798;2023-05-07T03:40:33;9.10;99.90
24384;DHT22;12504;52.870;8.798;2023-05-07T03:43:00;9.10;99.90
24384;DHT22;12504;52.870;8.798;2023-05-07T03:45:28;9.00;99.90
24384;DHT22;12504;52.870;8.798;2023-05-07T03:48:06;9.00;99.90
24384;DHT22;12504;52.870;8.798;2023-05-07T03:50:32;9.00;99.90
24384;DHT22;12504;52.870;8.798;2023-05-07T03:52:58;9.00;99.90
24384;DHT22;12504;52.870;8.798;2023-05-07T03:55:23;9.00;99.90
24384;DHT22;12504;52.870;8.798;2023-05-07T03:57:55;9.00;99.90
24384;DHT22;12504;52.870;8.798;2023-05-07T04:00:23;9.10;99.90
24384;DHT22;12504;52.870;8.798;2023-05-07T04:02:48;9.10;99.90
24384;DHT22;12504;52.870;8.798;2023-05-07T04:05:19;9.10;99.90
24384;DHT22;12504;52.870;8.798;2023-05-07T04:07:48;9.10;99.90
24384;DHT22;12504;52.870;8.798;2023-05-07T04:10:19;9.10;99.90
24384;DHT22;12504;52.870;8.798;2023-05-07T04:12:47;9.10;99.90
24384;DHT22;12504;52.870;8.798;2023-05-07T04:15:18;9.20;99.90
24384;DHT22;12504;52.870;8.798;2023-05-07T04:17:43;9.10;99.90
24384;DHT22;12504;52.870;8.798;2023-05-07T04:20:15;9.20;99.90
24384;DHT22;12504;52.870;8.798;2023-05-07T04:22:42;9.20;99.90
24384;DHT22;12504;52.870;8.798;2023-05-07T04:25:08;9.20;99.90
24384;DHT22;12504;52.870;8.798;2023-05-07T04:27:35;9.20;99.90
24384;DHT22;12504;52.870;8.798;2023-05-07T04:30:02;9.20;99.90
24384;DHT22;12504;52.870;8.798;2023-05-07T04:32:33;9.20;99.90
24384;DHT22;12504;52.870;8.798;2023-05-07T04:34:59;9.20;99.90
24384;DHT22;12504;52.870;8.798;2023-05-07T04:37:25;9.20;99.90
24384;DHT22;12504;52.870;8.798;2023-05-07T04:39:52;9.20;99.90
24384;DHT22;12504;52.870;8.798;2023-05-07T04:42:17;9.20;99.90
24384;DHT22;12504;52.870;8.798;2023-05-07T04:44:44;9.20;99.90
24384;DHT22;12504;52.870;8.798;2023-05-07T04:47:10;9.20;99.90
24384;DHT22;12504;52.870;8.798;2023-05-07T04:49:36;9.20;99.90
24384;DHT22;12504;52.870;8.798;2023-05-07T04:52:02;9.20;99.90
24384;DHT22;12504;52.870;8.798;2023-05-07T04:54:28;9.20;99.90
24384;DHT22;12504;52.870;8.798;2023-05-07T04:56:55;9.20;99.90
24384;DHT22;12504;52.870;8.798;2023-05-07T04:59:21;9.20;99.90
24384;DHT22;12504;52.870;8.798;2023-05-07T05:01:49;9.20;99.90
24384;DHT22;12504;52.870;8.798;2023-05-07T05:04:15;9.20;99.90
24384;DHT22;12504;52.870;8.798;2023-05-07T05:06:40;9.20;99.90
24384;DHT22;12504;52.870;8.798;2023-05-07T05:09:07;9.20;99.90
24384;DHT22;12504;52.870;8.798;2023-05-07T05:11:33;9.30;99.90
24384;DHT22;12504;52.870;8.798;2023-05-07T05:13:59;9.30;99.90
24384;DHT22;12504;52.870;8.798;2023-05-07T05:16:25;9.20;99.90
24384;DHT22;12504;52.870;8.798;2023-05-07T05:18:50;9.30;99.90
24384;DHT22;12504;52.870;8.798;2023-05-07T05:21:18;9.30;99.90
24384;DHT22;12504;52.870;8.798;2023-05-07T05:23:46;9.30;99.90
24384;DHT22;12504;52.870;8.798;2023-05-07T05:26:17;9.30;99.90
24384;DHT22;12504;52.870;8.798;2023-05-07T05:28:43;9.30;99.90
24384;DHT22;12504;52.870;8.798;2023-05-07T05:31:08;9.30;99.90
24384;DHT22;12504;52.870;8.798;2023-05-07T05:33:35;9.30;99.90
24384;DHT22;12504;52.870;8.798;2023-05-07T05:36:03;9.30;99.90
24384;DHT22;12504;52.870;8.798;2023-05-07T05:38:29;9.30;99.90
24384;DHT22;12504;52.870;8.798;2023-05-07T05:40:56;9.40;99.90
24384;DHT22;12504;52.870;8.798;2023-05-07T05:43:22;9.30;99.90
24384;DHT22;12504;52.870;8.798;2023-05-07T05:45:47;9.30;99.90
24384;DHT22;12504;52.870;8.798;2023-05-07T05:48:13;9.40;99.90
24384;DHT22;12504;52.870;8.798;2023-05-07T05:50:41;9.40;99.90
24384;DHT22;12504;52.870;8.798;2023-05-07T05:53:07;9.40;99.90
24384;DHT22;12504;52.870;8.798;2023-05-07T05:55:33;9.40;99.90
24384;DHT22;12504;52.870;8.798;2023-05-07T05:57:59;9.50;99.90
24384;DHT22;12504;52.870;8.798;2023-05-07T06:00:25;9.50;99.90
24384;DHT22;12504;52.870;8.798;2023-05-07T06:03:00;9.50;99.90
24384;DHT22;12504;52.870;8.798;2023-05-07T06:05:26;9.50;99.90
24384;DHT22;12504;52.870;8.798;2023-05-07T06:07:54;9.60;99.90
24384;DHT22;12504;52.870;8.798;2023-05-07T06:10:20;9.60;99.90
24384;DHT22;12504;52.870;8.798;2023-05-07T06:12:46;9.50;99.90
24384;DHT22;12504;52.870;8.798;2023-05-07T06:15:12;9.60;99.90
24384;DHT22;12504;52.870;8.798;2023-05-07T06:17:40;9.60;99.90
24384;DHT22;12504;52.870;8.798;2023-05-07T06:20:06;9.60;99.90
24384;DHT22;12504;52.870;8.798;2023-05-07T06:22:32;9.60;99.90
24384;DHT22;12504;52.870;8.798;2023-05-07T06:24:59;9.70;99.90
24384;DHT22;12504;52.870;8.798;2023-05-07T06:27:25;9.70;99.90
24384;DHT22;12504;52.870;8.798;2023-05-07T06:29:51;9.70;99.90
24384;DHT22;12504;52.870;8.798;2023-05-07T06:32:17;9.80;99.90
24384;DHT22;12504;52.870;8.798;2023-05-07T06:34:44;9.80;99.90
24384;DHT22;12504;52.870;8.798;2023-05-07T06:37:10;9.80;99.90
24384;DHT22;12504;52.870;8.798;2023-05-07T06:39:47;9.80;99.90
24384;DHT22;12504;52.870;8.798;2023-05-07T06:42:13;9.90;99.90
24384;DHT22;12504;52.870;8.798;2023-05-07T06:44:41;9.90;99.90
24384;DHT22;12504;52.870;8.798;2023-05-07T06:47:10;9.90;99.90
24384;DHT22;12504;52.870;8.798;2023-05-07T06:49:38;9.90;99.90
24384;DHT22;12504;52.870;8.798;2023-05-07T06:52:04;9.80;99.90
24384;DHT22;12504;52.870;8.798;2023-05-07T06:54:29;9.70;99.90
24384;DHT22;12504;52.870;8.798;2023-05-07T06:56:55;9.70;99.90
24384;DHT22;12504;52.870;8.798;2023-05-07T06:59:23;9.60;99.90
24384;DHT22;12504;52.870;8.798;2023-05-07T07:01:50;9.70;99.90
24384;DHT22;12504;52.870;8.798;2023-05-07T07:04:16;9.70;99.90
24384;DHT22;12504;52.870;8.798;2023-05-07T07:06:45;9.80;99.90
24384;DHT22;12504;52.870;8.798;2023-05-07T07:09:12;9.90;99.90
24384;DHT22;12504;52.870;8.798;2023-05-07T07:11:39;10.00;99.90
24384;DHT22;12504;52.870;8.798;2023-05-07T07:14:05;10.00;99.90
24384;DHT22;12504;52.870;8.798;2023-05-07T07:16:34;10.10;99.90
24384;DHT22;12504;52.870;8.798;2023-05-07T07:19:01;10.10;99.90
24384;DHT22;12504;52.870;8.798;2023-05-07T07:21:26;10.20;99.90
24384;DHT22;12504;52.870;8.798;2023-05-07T07:23:52;10.20;99.90
24384;DHT22;12504;52.870;8.798;2023-05-07T07:26:19;10.30;99.90
24384;DHT22;12504;52.870;8.798;2023-05-07T07:28:47;10.40;99.90
24384;DHT22;12504;52.870;8.798;2023-05-07T07:31:16;10.50;99.90
24384;DHT22;12504;52.870;8.798;2023-05-07T07:33:42;10.50;99.90
24384;DHT22;12504;52.870;8.798;2023-05-07T07:36:08;10.70;99.90
24384;DHT22;12504;52.870;8.798;2023-05-07T07:38:33;10.90;99.90
24384;DHT22;12504;52.870;8.798;2023-05-07T07:41:00;10.90;99.90
24384;DHT22;12504;52.870;8.798;2023-05-07T07:43:25;11.10;99.90
24384;DHT22;12504;52.870;8.798;2023-05-07T07:45:51;11.20;99.90
24384;DHT22;12504;52.870;8.798;2023-05-07T07:48:17;11.10;99.90
24384;DHT22;12504;52.870;8.798;2023-05-07T07:50:43;10.90;99.90
24384;DHT22;12504;52.870;8.798;2023-05-07T07:53:09;10.90;99.90
24384;DHT22;12504;52.870;8.798;2023-05-07T07:55:41;10.80;99.90
24384;DHT22;12504;52.870;8.798;2023-05-07T07:58:08;10.80;99.90
24384;DHT22;12504;52.870;8.798;2023-05-07T08:00:34;11.10;99.90
24384;DHT22;12504;52.870;8.798;2023-05-07T08:02:59;11.20;99.90
24384;DHT22;12504;52.870;8.798;2023-05-07T08:05:30;11.20;99.90
24384;DHT22;12504;52.870;8.798;2023-05-07T08:07:56;11.20;99.90
24384;DHT22;12504;52.870;8.798;2023-05-07T08:10:27;11.30;99.90
24384;DHT22;12504;52.870;8.798;2023-05-07T08:12:58;11.50;99.90
24384;DHT22;12504;52.870;8.798;2023-05-07T08:15:24;11.50;99.90
24384;DHT22;12504;52.870;8.798;2023-05-07T08:17:50;11.50;99.90
24384;DHT22;12504;52.870;8.798;2023-05-07T08:20:15;11.50;99.90
24384;DHT22;12504;52.870;8.798;2023-05-07T08:22:41;11.40;99.90
24384;DHT22;12504;52.870;8.798;2023-05-07T08:25:07;11.50;99.90
24384;DHT22;12504;52.870;8.798;2023-05-07T08:27:33;11.40;99.90
24384;DHT22;12504;52.870;8.798;2023-05-07T08:29:58;11.30;99.90
24384;DHT22;12504;52.870;8.798;2023-05-07T08:32:25;11.30;99.90
24384;DHT22;12504;52.870;8.798;2023-05-07T08:34:51;11.50;99.90
24384;DHT22;12504;52.870;8.798;2023-05-07T08:37:17;11.60;99.90
24384;DHT22;12504;52.870;8.798;2023-05-07T08:39:43;11.60;99.90
24384;DHT22;12504;52.870;8.798;2023-05-07T08:42:16;11.70;99.90
24384;DHT22;12504;52.870;8.798;2023-05-07T08:44:42;11.70;99.90
24384;DHT22;12504;52.870;8.798;2023-05-07T08:47:11;11.70;99.90
24384;DHT22;12504;52.870;8.798;2023-05-07T08:49:37;11.60;99.90
24384;DHT22;12504;52.870;8.798;2023-05-07T08:52:05;11.60;99.90
24384;DHT22;12504;52.870;8.798;2023-05-07T08:54:31;11.70;99.90
24384;DHT22;12504;52.870;8.798;2023-05-07T08:56:58;11.70;99.90
24384;DHT22;12504;52.870;8.798;2023-05-07T08:59:24;11.70;99.90
24384;DHT22;12504;52.870;8.798;2023-05-07T09:01:49;11.90;99.90
24384;DHT22;12504;52.870;8.798;2023-05-07T09:04:15;12.10;99.90
24384;DHT22;12504;52.870;8.798;2023-05-07T09:06:42;12.30;99.90
24384;DHT22;12504;52.870;8.798;2023-05-07T09:09:10;12.30;99.90
24384;DHT22;12504;52.870;8.798;2023-05-07T09:11:39;12.60;99.90
24384;DHT22;12504;52.870;8.798;2023-05-07T09:14:05;12.70;99.90
24384;DHT22;12504;52.870;8.798;2023-05-07T09:16:36;12.70;99.90
24384;DHT22;12504;52.870;8.798;2023-05-07T09:19:02;12.70;99.90
24384;DHT22;12504;52.870;8.798;2023-05-07T09:21:28;12.60;99.90
24384;DHT22;12504;52.870;8.798;2023-05-07T09:23:56;12.60;99.90
24384;DHT22;12504;52.870;8.798;2023-05-07T09:26:28;12.80;99.90
24384;DHT22;12504;52.870;8.798;2023-05-07T09:28:54;12.90;99.90
24384;DHT22;12504;52.870;8.798;2023-05-07T09:31:20;13.10;99.90
24384;DHT22;12504;52.870;8.798;2023-05-07T09:33:48;13.00;99.90
24384;DHT22;12504;52.870;8.798;2023-05-07T09:36:14;12.90;99.90
24384;DHT22;12504;52.870;8.798;2023-05-07T09:38:41;12.80;99.90
24384;DHT22;12504;52.870;8.798;2023-05-07T09:41:08;12.70;99.90
24384;DHT22;12504;52.870;8.798;2023-05-07T09:43:41;12.70;99.90
24384;DHT22;12504;52.870;8.798;2023-05-07T09:46:11;12.90;99.90
24384;DHT22;12504;52.870;8.798;2023-05-07T09:48:41;13.10;99.90
24384;DHT22;12504;52.870;8.798;2023-05-07T09:53:45;13.10;99.90
24384;DHT22;12504;52.870;8.798;2023-05-07T09:56:12;13.10;99.90
24384;DHT22;12504;52.870;8.798;2023-05-07T09:58:38;13.20;99.90
24384;DHT22;12504;52.870;8.798;2023-05-07T10:01:07;13.30;99.90
24384;DHT22;12504;52.870;8.798;2023-05-07T10:03:33;13.20;99.90
24384;DHT22;12504;52.870;8.798;2023-05-07T10:06:04;13.20;99.90
24384;DHT22;12504;52.870;8.798;2023-05-07T10:08:30;13.10;99.90
24384;DHT22;12504;52.870;8.798;2023-05-07T10:10:59;12.90;99.90
24384;DHT22;12504;52.870;8.798;2023-05-07T10:13:27;12.90;99.90
24384;DHT22;12504;52.870;8.798;2023-05-07T10:15:55;12.90;99.90
24384;DHT22;12504;52.870;8.798;2023-05-07T10:18:23;13.00;99.90
24384;DHT22;12504;52.870;8.798;2023-05-07T10:20:57;12.90;99.90
24384;DHT22;12504;52.870;8.798;2023-05-07T10:23:27;13.00;99.90
24384;DHT22;12504;52.870;8.798;2023-05-07T10:25:57;13.00;99.90
24384;DHT22;12504;52.870;8.798;2023-05-07T10:28:23;13.00;99.90
24384;DHT22;12504;52.870;8.798;2023-05-07T10:33:29;13.00;99.90
24384;DHT22;12504;52.870;8.798;2023-05-07T10:35:57;12.90;99.90
24384;DHT22;12504;52.870;8.798;2023-05-07T10:38:22;12.90;99.90
24384;DHT22;12504;52.870;8.798;2023-05-07T10:40:48;13.00;99.90
24384;DHT22;12504;52.870;8.798;2023-05-07T10:43:16;13.30;99.90
24384;DHT22;12504;52.870;8.798;2023-05-07T10:46:10;13.60;99.90
24384;DHT22;12504;52.870;8.798;2023-05-07T10:51:23;14.00;99.90
24384;DHT22;12504;52.870;8.798;2023-05-07T10:56:35;13.90;99.90
24384;DHT22;12504;52.870;8.798;2023-05-07T11:01:59;14.20;99.90
24384;DHT22;12504;52.870;8.798;2023-05-07T11:04:32;14.50;99.90
24384;DHT22;12504;52.870;8.798;2023-05-07T11:07:25;14.60;99.90
24384;DHT22;12504;52.870;8.798;2023-05-07T11:15:06;14.40;99.90
24384;DHT22;12504;52.870;8.798;2023-05-07T11:17:35;14.40;99.90
24384;DHT22;12504;52.870;8.798;2023-05-07T11:20:17;14.40;99.90
24384;DHT22;12504;52.870;8.798;2023-05-07T11:22:51;14.30;99.90
24384;DHT22;12504;52.870;8.798;2023-05-07T11:25:48;14.30;99.90
24384;DHT22;12504;52.870;8.798;2023-05-07T11:28:19;14.50;99.90
24384;DHT22;12504;52.870;8.798;2023-05-07T11:30:53;14.60;99.90
24384;DHT22;12504;52.870;8.798;2023-05-07T11:33:19;14.80;99.90
24384;DHT22;12504;52.870;8.798;2023-05-07T11:35:46;15.20;99.90
24384;DHT22;12504;52.870;8.798;2023-05-07T11:38:14;15.60;99.90
24384;DHT22;12504;52.870;8.798;2023-05-07T11:43:19;16.20;99.90
24384;DHT22;12504;52.870;8.798;2023-05-07T11:45:45;16.00;99.90
24384;DHT22;12504;52.870;8.798;2023-05-07T11:48:15;15.70;99.90
24384;DHT22;12504;52.870;8.798;2023-05-07T11:50:50;15.50;99.90
24384;DHT22;12504;52.870;8.798;2023-05-07T11:53:17;15.20;99.90
24384;DHT22;12504;52.870;8.798;2023-05-07T11:55:42;14.90;99.90
24384;DHT22;12504;52.870;8.798;2023-05-07T11:58:10;14.90;99.90
24384;DHT22;12504;52.870;8.798;2023-05-07T12:00:36;15.00;99.90
24384;DHT22;12504;52.870;8.798;2023-05-07T12:03:04;15.10;99.90
24384;DHT22;12504;52.870;8.798;2023-05-07T12:05:30;15.30;99.90
24384;DHT22;12504;52.870;8.798;2023-05-07T12:07:56;15.40;99.90
24384;DHT22;12504;52.870;8.798;2023-05-07T12:10:22;15.40;99.90
24384;DHT22;12504;52.870;8.798;2023-05-07T12:12:48;15.60;99.90
24384;DHT22;12504;52.870;8.798;2023-05-07T12:15:16;15.70;99.90
24384;DHT22;12504;52.870;8.798;2023-05-07T12:17:42;15.80;99.90
24384;DHT22;12504;52.870;8.798;2023-05-07T12:20:08;15.90;99.90
24384;DHT22;12504;52.870;8.798;2023-05-07T12:22:35;15.80;99.90
24384;DHT22;12504;52.870;8.798;2023-05-07T12:25:00;15.90;99.90
24384;DHT22;12504;52.870;8.798;2023-05-07T12:27:27;15.80;99.90
24384;DHT22;12504;52.870;8.798;2023-05-07T12:29:53;15.90;99.90
24384;DHT22;12504;52.870;8.798;2023-05-07T12:32:19;15.80;99.90
24384;DHT22;12504;52.870;8.798;2023-05-07T12:34:45;15.80;99.90
24384;DHT22;12504;52.870;8.798;2023-05-07T12:37:11;15.60;99.90
24384;DHT22;12504;52.870;8.798;2023-05-07T12:39:38;15.50;99.90
24384;DHT22;12504;52.870;8.798;2023-05-07T12:42:03;15.40;99.90
24384;DHT22;12504;52.870;8.798;2023-05-07T12:44:30;15.60;99.90
24384;DHT22;12504;52.870;8.798;2023-05-07T12:46:56;15.60;99.90
24384;DHT22;12504;52.870;8.798;2023-05-07T12:49:22;15.90;99.90
24384;DHT22;12504;52.870;8.798;2023-05-07T12:51:48;16.10;99.90
24384;DHT22;12504;52.870;8.798;2023-05-07T12:54:27;16.20;99.90
24384;DHT22;12504;52.870;8.798;2023-05-07T12:56:59;16.40;99.90
24384;DHT22;12504;52.870;8.798;2023-05-07T12:59:41;16.50;98.50
24384;DHT22;12504;52.870;8.798;2023-05-07T13:02:07;16.70;86.70
24384;DHT22;12504;52.870;8.798;2023-05-07T13:04:35;16.70;99.00
24384;DHT22;12504;52.870;8.798;2023-05-07T13:07:01;17.00;96.00
24384;DHT22;12504;52.870;8.798;2023-05-07T13:09:26;17.10;90.70
24384;DHT22;12504;52.870;8.798;2023-05-07T13:11:54;17.00;90.20
24384;DHT22;12504;52.870;8.798;2023-05-07T13:14:20;17.20;85.80
24384;DHT22;12504;52.870;8.798;2023-05-07T13:16:46;17.40;47.70
24384;DHT22;12504;52.870;8.798;2023-05-07T13:19:12;17.60;67.80
24384;DHT22;12504;52.870;8.798;2023-05-07T13:21:39;18.00;25.30
24384;DHT22;12504;52.870;8.798;2023-05-07T13:24:05;18.20;29.00
24384;DHT22;12504;52.870;8.798;2023-05-07T13:26:31;18.30;41.00
24384;DHT22;12504;52.870;8.798;2023-05-07T13:28:56;18.50;32.10
24384;DHT22;12504;52.870;8.798;2023-05-07T13:31:22;18.60;19.10
24384;DHT22;12504;52.870;8.798;2023-05-07T13:33:48;18.60;1.00
24384;DHT22;12504;52.870;8.798;2023-05-07T13:36:14;18.60;1.10
24384;DHT22;12504;52.870;8.798;2023-05-07T13:38:40;18.30;9.80
24384;DHT22;12504;52.870;8.798;2023-05-07T13:41:05;18.20;32.30
24384;DHT22;12504;52.870;8.798;2023-05-07T13:43:31;18.00;1.00
24384;DHT22;12504;52.870;8.798;2023-05-07T13:45:59;18.10;8.50
24384;DHT22;12504;52.870;8.798;2023-05-07T13:48:24;18.20;1.00
24384;DHT22;12504;52.870;8.798;2023-05-07T13:50:50;18.20;46.00
24384;DHT22;12504;52.870;8.798;2023-05-07T13:53:16;18.20;37.60
24384;DHT22;12504;52.870;8.798;2023-05-07T13:55:43;18.70;54.20
24384;DHT22;12504;52.870;8.798;2023-05-07T13:58:09;19.20;22.30
24384;DHT22;12504;52.870;8.798;2023-05-07T14:00:35;19.00;1.00
24384;DHT22;12504;52.870;8.798;2023-05-07T14:03:01;19.10;1.00
24384;DHT22;12504;52.870;8.798;2023-05-07T14:05:26;19.20;1.00
24384;DHT22;12504;52.870;8.798;2023-05-07T14:07:54;19.50;1.00
24384;DHT22;12504;52.870;8.798;2023-05-07T14:10:19;19.60;1.00
24384;DHT22;12504;52.870;8.798;2023-05-07T14:12:45;19.20;1.00
24384;DHT22;12504;52.870;8.798;2023-05-07T14:15:13;19.10;1.00
24384;DHT22;12504;52.870;8.798;2023-05-07T14:17:39;18.80;1.00
24384;DHT22;12504;52.870;8.798;2023-05-07T14:20:04;18.80;1.00
24384;DHT22;12504;52.870;8.798;2023-05-07T14:22:32;18.90;1.00
24384;DHT22;12504;52.870;8.798;2023-05-07T14:24:57;18.50;1.00
24384;DHT22;12504;52.870;8.798;2023-05-07T14:27:23;18.50;28.90
24384;DHT22;12504;52.870;8.798;2023-05-07T14:29:48;18.50;6.20
24384;DHT22;12504;52.870;8.798;2023-05-07T14:32:19;17.90;1.00
24384;DHT22;12504;52.870;8.798;2023-05-07T14:34:45;17.50;33.00
24384;DHT22;12504;52.870;8.798;2023-05-07T14:37:11;17.40;78.90
24384;DHT22;12504;52.870;8.798;2023-05-07T14:39:37;17.70;55.40
24384;DHT22;12504;52.870;8.798;2023-05-07T14:42:02;18.20;23.40
24384;DHT22;12504;52.870;8.798;2023-05-07T14:44:28;18.20;1.00
24384;DHT22;12504;52.870;8.798;2023-05-07T14:46:54;17.80;22.80
24384;DHT22;12504;52.870;8.798;2023-05-07T14:49:19;17.50;35.80
24384;DHT22;12504;52.870;8.798;2023-05-07T14:51:45;17.20;72.00
24384;DHT22;12504;52.870;8.798;2023-05-07T14:54:11;17.40;85.50
24384;DHT22;12504;52.870;8.798;2023-05-07T14:56:37;17.30;75.80
24384;DHT22;12504;52.870;8.798;2023-05-07T14:59:03;17.00;69.70
24384;DHT22;12504;52.870;8.798;2023-05-07T15:01:28;16.90;89.80
24384;DHT22;12504;52.870;8.798;2023-05-07T15:03:54;16.70;85.20
24384;DHT22;12504;52.870;8.798;2023-05-07T15:06:20;16.50;92.50
24384;DHT22;12504;52.870;8.798;2023-05-07T15:08:46;16.50;99.50
24384;DHT22;12504;52.870;8.798;2023-05-07T15:11:11;16.20;94.10
24384;DHT22;12504;52.870;8.798;2023-05-07T15:13:37;16.30;99.90
24384;DHT22;12504;52.870;8.798;2023-05-07T15:16:02;16.80;98.60
24384;DHT22;12504;52.870;8.798;2023-05-07T15:18:28;17.30;59.20
24384;DHT22;12504;52.870;8.798;2023-05-07T15:20:55;17.30;72.20
24384;DHT22;12504;52.870;8.798;2023-05-07T15:23:20;17.30;61.70
24384;DHT22;12504;52.870;8.798;2023-05-07T15:25:48;17.20;83.40
24384;DHT22;12504;52.870;8.798;2023-05-07T15:28:13;17.00;90.90
24384;DHT22;12504;52.870;8.798;2023-05-07T15:30:39;16.90;93.70
24384;DHT22;12504;52.870;8.798;2023-05-07T15:33:04;16.80;53.60
24384;DHT22;12504;52.870;8.798;2023-05-07T15:35:30;16.60;65.90
24384;DHT22;12504;52.870;8.798;2023-05-07T15:37:56;16.60;84.00
24384;DHT22;12504;52.870;8.798;2023-05-07T15:40:21;16.50;99.90
24384;DHT22;12504;52.870;8.798;2023-05-07T15:42:47;16.50;99.90
24384;DHT22;12504;52.870;8.798;2023-05-07T15:45:13;16.30;91.10
24384;DHT22;12504;52.870;8.798;2023-05-07T15:47:38;16.30;99.90
24384;DHT22;12504;52.870;8.798;2023-05-07T15:50:04;16.20;99.90
24384;DHT22;12504;52.870;8.798;2023-05-07T15:52:30;16.00;99.90
24384;DHT22;12504;52.870;8.798;2023-05-07T15:54:56;16.10;99.90
24384;DHT22;12504;52.870;8.798;2023-05-07T15:57:22;16.20;99.90